Central Sierra Snow Lab Weather observations

Data are for 10 minute period ending at time listed.
 Day   Time    Incoming  Reflected   Ave.   Ave.    Ave.    Vector  Max.    Ave.    Total    Snow   
  of    of      Solar     Solar      Air    Rel.    Wind    Wind    Wind   Baro.   Precip.   Depth  
Year   Day     Radiation Radiation   Temp.  Humid.  Speed   Dir.    Gust   Press.                   
2019   (PST)    Kw/m2     Kw/m2       F       %      mph     deg.    mph     mb.     in.      in.   
----------------------------------------------------------------------------------------------------
 168   12:40    1.034     999.000     73.0     24     2.9     138     8.3   792.90   -2.96   -4.50  
 168   12:50    0.912     999.000     72.2     26     3.5     101     6.7   792.90   -2.96   -4.30  
 168   13:00    0.653     999.000     71.7     27     2.7     352     6.5   792.80   -2.96   -3.70  
 168   13:10    0.983     999.000     72.2     25     2.4     323     6.6   792.70   -2.96   -4.10  
 168   13:20    1.026     999.000     73.3     22     2.8     311     7.0   792.70   -2.96    3.50  
 168   13:30    0.734     999.000     73.7     19     2.0     108     4.1   792.80   -2.96   -4.20  
 168   13:40    0.188     999.000     71.0     27     2.9      37    11.9   793.00   -2.96   90.50  
 168   13:50    0.172     999.000     68.6     31     1.9      35     4.8   793.00   -2.96   164.00  
 168   14:00    0.360     999.000     67.7     31     2.2      80     6.1   793.00   -2.96   164.20  
 168   14:10    0.797     999.000     69.3     31     1.8     206     6.5   793.00   -2.96   164.50  
 168   14:20    0.842     999.000     71.5     28     2.4     197     6.3   792.90   -2.96   164.10  
 168   14:30    0.822     999.000     71.9     27     2.8     200     7.4   792.80   -2.96   50.90  
 168   14:40    0.793     999.000     72.8     27     2.5     227     7.8   792.70   -2.96   -4.30  
 168   14:50    0.774     999.000     72.4     26     3.2     218     8.1   792.70   -2.96   -4.00  
 168   15:00    0.668     999.000     72.4     32     2.1     227     7.1   792.70   -2.96   -4.70  
 168   15:10    0.312     999.000     69.4     41     3.4     205     8.2   792.70   -2.96   30.70  
 168   15:20    0.778     999.000     69.6     40     2.1     210     5.7   792.70   -2.96   75.10  
 168   15:30    0.809     999.000     71.4     34     2.6     200     6.2   792.80   -2.96   -4.60  
 168   15:40    0.574     999.000     72.5     32     2.0     221     5.2   792.80   -2.96   -4.60  
 168   15:50    0.202     999.000     70.1     32     2.9     271     9.5   793.00   -2.96    3.60  
 168   16:00    0.142     999.000     67.5     35     1.8     228     7.4   793.10   -2.96   90.80  
 168   16:10    0.154     999.000     66.1     40     2.7     284     8.9   793.10   -2.96   164.40  
 168   16:20    0.580     999.000     66.8     41     2.1     325     8.2   793.20   -2.96   164.40  
 168   16:30    0.129     999.000     67.8     40     1.7      75     3.4   793.50   -2.96   164.20  
 168   16:40    0.028     999.000     60.8     70     1.6     158     3.5   793.50   -2.96   81.70  
 168   16:50    0.031     999.000     56.4     83     2.2      41     4.2   793.40   -2.96   102.90  
 168   17:00    0.038     999.000     54.4     84     1.7      43     3.8   793.60   -2.96   141.20  
 168   17:10    0.083     999.000     53.3     84     2.0      35     2.8   793.60   -2.96   58.60  
 168   17:20    0.024     999.000     52.9     84     1.2      39     3.0   793.60   -2.96   106.50  
 168   17:30    0.040     999.000     52.7     85     0.6      43     2.8   793.60   -2.96    9.00  
 168   17:40    0.050     999.000     52.4     84     0.5      25     2.4   793.70   -2.96   -5.00  
 168   17:50    0.084     999.000     52.6     83     0.6      33     2.5   793.80   -2.96   -3.60  
 168   18:00    0.135     999.000     53.3     83     0.0       0     0.0   793.80   -2.96   127.50  
 168   18:10    0.220     999.000     56.0     78     0.5     319     2.0   793.90   -2.96   164.30  
 168   18:20    0.127     999.000     57.4     74     0.7      24     2.0   793.90   -2.96   164.10  
 168   18:30    0.024     999.000     55.6     76     1.7      27     3.2   794.10   -2.96   164.40  
 168   18:40    0.019     999.000     53.5     80     1.4      29     3.5   794.10   -2.96   164.50  
 168   18:50    0.020     999.000     52.9     81     1.1      17     2.5   794.20   -2.96   158.20  
 168   19:00    0.017     999.000     52.2     78     1.7      24     3.3   794.30   -2.96   164.50  
 168   19:10    0.012     999.000     51.2     79     2.3      21     3.4   794.30   -2.96   164.50  
 168   19:20    0.007     999.000     50.3     81     2.5      26     4.2   794.30   -2.96   28.10  
 168   19:30    0.004     999.000     49.5     82     3.4      25     4.4   794.40   -2.96   -1.10  
 168   19:40    0.002     999.000     48.9     83     2.6      26     3.6   794.40   -2.96   -4.20  
 168   19:50    0.001     999.000     48.4     83     2.2      28     3.1   794.40   -2.96    2.60  
 168   20:00    0.000     999.000     48.0     82     2.2      25     3.0   794.50   -2.96    0.80  
 168   20:10    0.000     999.000     47.9     81     2.1      32     3.8   794.50   -2.96    0.80  
 168   20:20    0.000     999.000     47.8     80     3.3      29     4.4   794.60   -2.96   -2.70  
 168   20:30    0.000     999.000     47.8     79     3.8      29     4.8   794.70   -2.96   -4.80  
 168   20:40    0.000     999.000     47.8     79     3.8      30     4.8   794.80   -2.96   -4.90  
 168   20:50    0.000     999.000     47.6     79     3.4      33     4.4   794.90   -2.96   -4.70  
 168   21:00    0.000     999.000     47.2     78     4.0      30     5.0   794.90   -2.96   -4.80  
 168   21:10    0.000     999.000     46.9     78     4.2      29     4.9   795.00   -2.96   -5.00  
 168   21:20    0.000     999.000     46.7     79     3.5      32     4.4   795.00   -2.96   -4.60  
 168   21:30    0.000     999.000     46.5     79     3.0      32     4.6   795.10   -2.97   -3.10  
 168   21:40    0.000     999.000     46.4     79     3.1      32     5.3   795.10   -2.96   -4.90  
 168   21:50    0.000     999.000     46.5     78     3.0      36     4.9   795.10   -2.96   -4.90  
 168   22:00    0.000     999.000     46.7     76     3.4      32     6.7   795.10   -2.96   -4.80  
 168   22:10    0.000     999.000     46.9     74     2.5      29     5.4   795.10   -2.96   10.70  
 168   22:20    0.000     999.000     47.2     72     2.2      34     8.1   795.00   -2.96   164.50  
 168   22:30    0.000     999.000     48.4     68     2.0      38     4.8   795.00   -2.96   164.50  
 168   22:40    0.000     999.000     49.4     65     1.0      43     3.1   795.00   -2.96   164.40  
 168   22:50    0.000     999.000     50.1     64     1.3      41     7.2   795.00   -2.96   89.40  
 168   23:00    0.000     999.000     51.6     59     2.0      49     6.0   795.00   -2.96   43.60  
 168   23:10    0.000     999.000     53.0     56     1.8      56     7.5   795.10   -2.96   164.70  
 168   23:20    0.000     999.000     52.5     57     1.1      36     3.9   795.00   -2.96   164.70  
 168   23:30    0.000     999.000     52.2     56     1.3      30     3.6   795.00   -2.96   164.70  
 168   23:40    0.000     999.000     52.3     56     1.4      34     6.8   795.10   -2.96   164.80  
 168   23:50    0.000     999.000     52.8     55     1.1      80     3.4   795.10   -2.96   164.80  
 169    0:00    0.000     999.000     52.2     56     0.7      51     2.9   795.10   -2.96   164.80  
 169    0:10    0.000     999.000     52.1     56     0.9      85     2.9   795.10   -2.96   164.80  
 169    0:20    0.000     999.000     53.8     51     1.5      90     9.4   795.10   -2.96   164.80  
 169    0:30    0.000     999.000     55.8     47     1.0      85     5.7   795.10   -2.96   164.80  
 169    0:40    0.000     999.000     55.3     49     1.5     144     5.1   795.10   -2.96   164.80  
 169    0:50    0.000     999.000     55.2     50     1.2     159     4.0   795.00   -2.96   164.80  
 169    1:00    0.000     999.000     54.4     54     1.4     160     3.4   795.10   -2.96   164.80  
 169    1:10    0.000     999.000     54.2     53     1.8     150     4.4   795.10   -2.96   164.80  
 169    1:20    0.000     999.000     54.6     51     1.7     132     5.9   795.20   -2.96   164.80  
 169    1:30    0.000     999.000     55.2     49     1.8     127     3.7   795.20   -2.96   164.80  
 169    1:40    0.000     999.000     55.5     48     2.1     125     6.0   795.20   -2.96   164.80  
 169    1:50    0.000     999.000     56.1     46     2.6      79     8.3   795.10   -2.96   164.80  
 169    2:00    0.000     999.000     55.4     47     1.9      42     4.7   795.20   -2.96   164.80  
 169    2:10    0.000     999.000     54.2     49     1.9      44     4.8   795.20   -2.96   164.80  
 169    2:20    0.000     999.000     54.3     49     1.6      83     3.8   795.20   -2.96   164.80  
 169    2:30    0.000     999.000     54.6     48     2.1      78     5.0   795.20   -2.96   164.80  
 169    2:40    0.000     999.000     54.2     48     1.8      80     4.7   795.20   -2.96   164.80  
 169    2:50    0.000     999.000     53.6     50     1.8      66     4.2   795.20   -2.96   164.80  
 169    3:00    0.000     999.000     53.2     50     2.1      46     5.2   795.20   -2.96   164.80  
 169    3:10    0.000     999.000     51.6     53     2.5      32     4.5   795.30   -2.96   164.80  
 169    3:20    0.000     999.000     50.1     57     3.0      35     5.3   795.40   -2.96   164.80  
 169    3:30    0.000     999.000     49.0     60     3.4      33     4.7   795.40   -2.96   164.80  
 169    3:40    0.000     999.000     48.1     62     2.8      37     4.9   795.40   -2.96   164.80  
 169    3:50    0.000     999.000     47.8     63     3.4      33     4.8   795.50   -2.96   164.70  
 169    4:00    0.000     999.000     47.3     64     2.9      38     5.2   795.50   -2.96   164.50  
 169    4:10    0.000     999.000     47.2     64     2.9      39     4.9   795.50   -2.96   164.50  
 169    4:20    0.000     999.000     46.9     65     2.9      39     5.0   795.50   -2.96   164.60  
 169    4:30    0.001     999.000     47.4     64     4.0      29     7.1   795.60   -2.96   164.60  
 169    4:40    0.002     999.000     47.2     65     3.5      34     5.1   795.70   -2.96   164.80  
 169    4:50    0.004     999.000     46.7     66     3.1      38     4.9   795.70   -2.96   164.70  
 169    5:00    0.006     999.000     46.3     67     3.1      39     5.0   795.80   -2.96   164.60  
 169    5:10    0.007     999.000     46.0     68     3.1      39     5.1   795.80   -2.96   164.60  
 169    5:20    0.009     999.000     45.7     68     3.0      38     5.0   795.90   -2.96   164.60  
 169    5:30    0.010     999.000     45.6     69     2.5      42     4.7   796.00   -2.96   164.60  
 169    5:40    0.011     999.000     45.7     70     2.7      38     4.7   796.00   -2.96   164.50  
 169    5:50    0.014     999.000     45.6     71     2.7      37     4.5   796.00   -2.96   152.10  
 169    6:00    0.017     999.000     45.7     71     2.4      36     4.3   796.10   -2.96   164.80  
 169    6:10    0.019     999.000     46.5     71     1.5      45     2.4   796.20   -2.96   164.50  
 169    6:20    0.021     999.000     47.6     69     1.3      46     2.3   796.30   -2.96   164.50  
 169    6:30    0.037     999.000     48.4     68     1.4      41     3.3   796.30   -2.96   163.00  
 169    6:40    0.147     999.000     49.7     65     1.5      59     4.5   796.30   -2.96   164.60  
 169    6:50    0.319     999.000     52.8     59     1.3      71     2.5   796.40   -2.96   164.70  
 169    7:00    0.359     999.000     55.2     55     1.9      76     3.2   796.50   -2.96   164.70  
 169    7:10    0.374     999.000     57.9     47     1.6     119     4.0   796.40   -2.96   164.60  
 169    7:20    0.411     999.000     60.0     44     1.0     101     4.1   796.50   -2.96   164.60  
 169    7:30    0.428     999.000     60.4     44     0.5      80     1.8   796.40   -2.96   164.60  
 169    7:40    0.480     999.000     60.8     42     0.8      99     3.2   796.40   -2.96   164.50  
 169    7:50    0.510     999.000     61.6     38     1.4     120     5.4   796.40   -2.96   164.40  
 169    8:00    0.539     999.000     62.6     36     2.3      81     5.8   796.50   -2.96   164.40  
 169    8:10    0.568     999.000     63.8     36     1.5      57     4.9   796.50   -2.96   164.40  
 169    8:20    0.596     999.000     64.1     35     2.5      36     7.4   796.50   -2.96   164.30  
 169    8:30    0.624     999.000     64.8     35     1.7     102     6.7   796.50   -2.96   155.00  
 169    8:40    0.651     999.000     65.9     34     1.2      42     5.2   796.50   -2.96   32.00  
 169    8:50    0.678     999.000     66.2     36     0.9      29     2.8   796.50   -2.96   -4.70  
 169    9:00    0.703     999.000     65.8     35     2.7      77     6.1   796.40   -2.96   -4.40  
 169    9:10    0.728     999.000     66.1     34     2.5      77     5.9   796.40   -2.96   -4.40  
 169    9:20    0.752     999.000     66.8     33     2.1      35     5.4   796.40   -2.96   -4.30  
 169    9:30    0.775     999.000     67.3     33     2.3      35     4.7   796.40   -2.96   -4.50  
 169    9:40    0.805     999.000     67.8     33     2.0      38     4.7   796.40   -2.96   -4.30  
 169    9:50    0.819     999.000     68.8     32     1.8      28     4.0   796.40   -2.96   -4.50  
 169   10:00    0.840     999.000     69.4     29     2.0      72     4.7   796.30   -2.96   -4.50  
 169   10:10    0.855     999.000     70.0     28     1.6     134     4.7   796.30   -2.96   -4.40  
 169   10:20    0.871     999.000     70.9     28     1.5     247     3.6   796.30   -2.96   -4.70  
 169   10:30    0.886     999.000     70.7     25     2.2     240     4.7   796.40   -2.96   -4.60  
 169   10:40    0.901     999.000     70.2     25     2.3      74     5.4   796.30   -2.96   -4.50  
 169   10:50    0.913     999.000     71.3     26     1.2      20     4.5   796.30   -2.96   -4.50  
 169   11:00    0.918     999.000     71.7     26     1.7       6     4.7   796.30   -2.96   -4.40  
 169   11:10    0.930     999.000     71.8     25     2.2     360     4.0   796.20   -2.96   -4.20  
 169   11:20    0.934     999.000     72.0     24     2.1     299     4.7   796.10   -2.96   -4.30  
 169   11:30    0.942     999.000     72.3     23     2.7     306     7.5   796.10   -2.96   -4.50  
 169   11:40    0.946     999.000     73.1     23     1.6     270     3.8   796.10   -2.96   -4.60  
 169   11:50    0.950     999.000     73.4     23     2.1     314     4.6   796.00   -2.96   -4.50  
 169   12:00    0.951     999.000     73.2     23     2.4      79     5.0   795.90   -2.96   -4.20  
 169   12:10    0.961     999.000     73.5     22     2.0      21     5.2   795.90   -2.96   -4.40  
 169   12:20    0.952     999.000     73.9     23     2.5     132     4.7   795.80   -2.96   -4.20  
 169   12:30    0.951     999.000     74.2     23     2.6     174     5.5   795.80   -2.96   -4.20  

Return to Central Sierra Snow Lab graphs page.


Western Regional Climate Center,wrcc@dri.edu